Tiempo atmosférico en la estación meteorológica de Morón De Almazán , Soria (978 m.)



Fecha
DESCASC
Temp. máxima en grados centígrados (hora)
DESCASC
Temp. mínima en grados centígrados (hora)
DESCASC
Temp. media en grados centígrados
DESCASC
Racha de viento máxima en m/sg (hora)
DESCASC
Velocidad máxima media en intervalos de 10 minutos(hora)
DESCASC
Precipitaciones diarias en mm
DESCASC
Precipitaciones de 00:00 a 06:00 en mm
DESCASC
Precipitaciones de 06:00 a 12:00 en mm
DESCASC
Precipitaciones de 12:00 a 18:00 en mm
DESCASC
Precipitaciones de 18:00 a 24:00 en mm
DESCASC
03-12-2020 7.6 (14:30) -7 (06:40) 0.3 11.39 (19:40) 7.5 (17:20) 0 0 0 0 0
02-12-2020 6.8 (14:00) -4.1 (23:20) 1.4 13.33 (14:20) 9.72 (14:20) 0.2 0.2 0 0 0
01-12-2020 12.2 (13:40) -3.6 (02:10) 4.3 10.83 (13:30) 7.5 (13:30) 0.2 0 0.2 0 0
30-11-2020 12.9 (16:40) -2.5 (-00:0) 5.2 2.5 (12:30) 1.67 (00:50) 0 0 0 0 0
29-11-2020 13.2 (14:10) -1.1 (-00:0) 6 4.44 (05:20) 2.78 (14:40) 0 0 0 0 0
28-11-2020 10.1 (13:00) 5.5 (00:00) 7.8 8.61 (02:30) 5.56 (02:30) 0 0 0 0 0
27-11-2020 9.9 (11:50) 6 (00:00) 7.9 11.11 (06:50) 7.78 (06:10) 3 0 0 0.6 2.4
26-11-2020 11 (12:20) 4.8 (00:00) 7.9 12.22 (20:50) 8.89 (20:50) 0.2 0 0 0.2 0
25-11-2020 10.3 (17:00) -1.6 (-00:0) 4.4 7.78 (23:40) 5 (23:40) 0 0 0 0 0
24-11-2020 15.1 (14:20) -3.4 (-00:0) 5.9 6.67 (12:10) 4.44 (12:10) 0 0 0 0 0
23-11-2020 19 (15:20) -4.8 (-00:0) 7.1 2.5 (17:10) 1.67 (20:40) 0 0 0 0 0
22-11-2020 15.7 (15:50) -4.9 (-00:0) 5.4 9.72 (14:00) 6.67 (14:00) 0 0 0 0 0
21-11-2020 14 (14:30) -3.5 (-00:0) 5.3 7.22 (01:40) 4.17 (01:40) 0 0 0 0 0
20-11-2020 13 (15:30) -0.4 (00:00) 6.3 10.28 (14:10) 7.22 (14:40) 0 0 0 0 0
19-11-2020 17.4 (13:50) 0.6 (00:00) 9 9.72 (14:10) 7.5 (14:20) 0 0 0 0 0
18-11-2020 18.8 (15:10) 1.4 (00:00) 10.1 8.33 (15:30) 5.83 (15:30) 0 0 0 0 0
17-11-2020 19.7 (15:50) 1.1 (00:00) 10.4 3.33 (23:00) 2.22 (17:00) 0.2 0 0.2 0 0
16-11-2020 16.1 (14:00) 2.4 (00:00) 9.3 8.33 (14:20) 5.56 (14:10) 1.2 1.2 0 0 0
15-11-2020 14.7 (12:50) 8.6 (00:00) 11.7 13.61 (13:50) 8.89 (12:40) 0 0 0 0 0
14-11-2020 11.2 (11:30) 1.6 (00:00) 6.4 8.33 (22:30) 5.28 (22:30) 0.8 0 0 0.8 0
13-11-2020 16 (13:40) 3.2 (00:00) 9.6 5.56 (13:20) 3.33 (13:50) 0 0 0 0 0
12-11-2020 16.2 (13:30) 2.2 (00:00) 9.2 3.61 (19:20) 2.5 (19:20) 0 0 0 0 0
11-11-2020 15.5 (15:10) -1.4 (-00:0) 7.1 10 (12:50) 6.67 (15:20) 0 0 0 0 0
10-11-2020 17.2 (15:50) 0.6 (00:00) 8.9 4.44 (11:10) 3.33 (11:20) 0.2 0 0.2 0 0
09-11-2020 15.4 (12:40) 2.1 (00:00) 8.7 6.67 (12:50) 3.89 (15:50) 0.4 0 0.4 0 0
08-11-2020 14.9 (15:30) 4.3 (00:00) 9.6 10 (00:50) 6.39 (11:30) 0 0 0 0 0
07-11-2020 12.9 (14:10) 8.4 (00:00) 10.6 13.61 (05:10) 7.78 (05:10) 17.4 16.8 0.6 0 0
06-11-2020 15.8 (15:40) 8.7 (00:00) 12.3 14.72 (16:10) 10.83 (18:40) 0 0 0 0 0
05-11-2020 9.7 (14:20) 5 (00:00) 7.3 15.56 (07:00) 10.83 (07:20) 6 0 0.2 0.8 5

Gráficas

Temp. máximas Temp. mínimas Temp. medias Precipitaciones Rachas de viento máximas Velocidades máximas media en intervalos de 10 minutos

Datos horarios

Fecha y hora oficial Temperatura (ºC) Velocidad del viento (km/h) Dirección del viento Racha (km/h) Dirección de racha Precipitación (mm) Presión (hPa) Tendencia (hPa) Humedad (%)
2020-12-04 23:00:00 0.3 17 Oeste 33 Oeste 0 -- -- 86
2020-12-04 22:00:00 0 17 Oeste 30 Oeste 0 -- -- 87
2020-12-04 21:00:00 0.3 12 Oeste 23 Oeste 0 -- -- 85
2020-12-04 20:00:00 0.6 10 Oeste 21 Oeste 0 -- -- 82
2020-12-04 19:00:00 0.7 12 Sudoeste 33 Oeste 0 -- -- 80
2020-12-04 18:00:00 1.6 18 Oeste 28 Oeste 0 -- -- 76
2020-12-04 17:00:00 1.8 19 Oeste 40 Oeste 0 -- -- 77
2020-12-04 16:00:00 3 27 Oeste 43 Oeste 0 -- -- 67
2020-12-04 15:00:00 2.7 30 Oeste 45 Oeste 0 -- -- 65
2020-12-04 14:00:00 3.2 30 Oeste 54 Sudoeste 0 -- -- 65
2020-12-04 13:00:00 3 34 Oeste 50 Oeste 0 -- -- 68
2020-12-04 12:00:00 2.9 35 Oeste 56 Oeste 0 -- -- 70
2020-12-04 11:00:00 3.1 34 Oeste 53 Oeste 0.2 -- -- 75
2020-12-04 10:00:00 1.6 29 Oeste 44 Oeste 0.4 -- -- 86
2020-12-04 09:00:00 1.3 24 Oeste 34 Oeste 0.4 -- -- 88
2020-12-04 08:00:00 0.6 13 Oeste 42 Oeste 0.6 -- -- 93
2020-12-04 07:00:00 1.1 26 Oeste 39 Oeste 0.8 -- -- 97
2020-12-04 06:00:00 0.2 3 Oeste 14 Oeste 0.4 -- -- 99
2020-12-04 05:00:00 0 14 Oeste 49 Oeste 0.4 -- -- 98
2020-12-04 04:00:00 2.4 29 Sudoeste 54 Sudoeste 0.2 -- -- 92
2020-12-04 03:00:00 2.5 30 Sudoeste 59 Sudoeste 0 -- -- 88
2020-12-04 02:00:00 3.3 32 Sudoeste 50 Sudoeste 0 -- -- 80
2020-12-04 01:00:00 3.3 19 Sudoeste 42 Sudoeste 0 -- -- 78
2020-12-04 00:00:00 2 16 Sudoeste 33 Sur 0 -- -- 80
2020-12-03 23:00:00 3.2 20 Sudoeste 34 Sudoeste 0 -- -- 73
2020-12-03 22:00:00 4.5 25 Sudoeste 41 Sudoeste 0 -- -- 71
2020-12-03 21:00:00 2.8 13 Sudoeste 30 Sudoeste 0 -- -- 76
2020-12-03 20:00:00 3 23 Sudoeste 41 Sudoeste 0 -- -- 70
2020-12-03 19:00:00 2.9 23 Sudoeste 40 Sudoeste 0 -- -- 72
2020-12-03 18:00:00 3.1 19 Sudoeste 39 Sudoeste 0 -- -- 71
2020-12-03 17:00:00 4.2 14 Sudoeste 29 Sudoeste 0 -- -- 63
2020-12-03 16:00:00 6 10 Oeste 23 Oeste 0 -- -- 68
2020-12-03 15:00:00 6.3 17 Oeste 28 Oeste 0 -- -- 68
2020-12-03 14:00:00 7.2 13 Oeste 23 Noroeste 0 -- -- 66
2020-12-03 13:00:00 6 15 Oeste 24 Oeste 0 -- -- 70
2020-12-03 12:00:00 3.2 15 Oeste 22 Oeste 0 -- -- 82
2020-12-03 11:00:00 1.5 10 Oeste 15 Oeste 0 -- -- 85
2020-12-03 10:00:00 -1.4 0 Calma 4 Oeste 0 -- -- 93
2020-12-03 09:00:00 -5.9 0 Calma 0 Calma 0 -- -- 96
2020-12-03 08:00:00 -6.1 0 Calma 7 Oeste 0 -- -- 97
2020-12-03 07:00:00 -6 4 Oeste 7 Oeste 0 -- -- 98
2020-12-03 06:00:00 -6.7 6 Oeste 9 Noroeste 0 -- -- 96
2020-12-03 05:00:00 -5.9 0 Calma 4 Noroeste 0 -- -- 97
2020-12-03 04:00:00 -5.4 0 Calma 8 Sur 0 -- -- 97
2020-12-03 03:00:00 -5.3 0 Calma 6 Oeste 0 -- -- 97
2020-12-03 02:00:00 -4.9 0 Calma 6 Oeste 0 -- -- 98
2020-12-03 01:00:00 -4.8 4 Oeste 7 Oeste 0 -- -- 94
2020-12-03 00:00:00 -3.8 2 Oeste 7 Oeste 0 -- -- 94
2020-12-02 23:00:00 -3.3 2 Oeste 10 Sudoeste 0 -- -- 89
2020-12-02 22:00:00 -3.9 8 Noroeste 13 Noroeste 0 -- -- 88
2020-12-02 21:00:00 -2.8 3 Oeste 9 Oeste 0 -- -- 86
2020-12-02 20:00:00 -0.9 4 Oeste 15 Oeste 0 -- -- 79
2020-12-02 19:00:00 1.5 20 Noroeste 35 Norte 0 -- -- 71
2020-12-02 18:00:00 1.7 14 Noroeste 36 Noroeste 0 -- -- 71
2020-12-02 17:00:00 4.7 29 Noroeste 39 Noroeste 0 -- -- 59
2020-12-02 16:00:00 6 23 Norte 39 Norte 0 -- -- 52
2020-12-02 15:00:00 5.9 25 Noroeste 48 Noroeste 0 -- -- 56
2020-12-02 14:00:00 6.8 31 Noroeste 40 Noroeste 0 -- -- 60
2020-12-02 13:00:00 5.6 26 Norte 37 Noroeste 0 -- -- 63
2020-12-02 12:00:00 6.1 21 Noroeste 42 Noroeste 0 -- -- 61
2020-12-02 11:00:00 4.6 14 Noroeste 20 Noroeste 0 -- -- 65
2020-12-02 10:00:00 2.9 10 Norte 24 Norte 0 -- -- 71
2020-12-02 09:00:00 1.9 15 Noroeste 36 Norte 0 -- -- 71
2020-12-02 08:00:00 2 23 Norte 33 Norte 0 -- -- 78
2020-12-02 07:00:00 1.8 6 Noroeste 18 Norte 0 -- -- 84
2020-12-02 06:00:00 3.1 10 Noroeste 17 Noroeste 0.2 -- -- 92
2020-12-02 05:00:00 3.9 14 Noroeste 23 Noroeste 0 -- -- 94
2020-12-02 04:00:00 4 18 Oeste 27 Oeste 0 -- -- 90
2020-12-02 03:00:00 3.3 8 Oeste 20 Oeste 0 -- -- 88
2020-12-02 02:00:00 3.5 12 Oeste 25 Oeste 0 -- -- 80
2020-12-02 01:00:00 4.8 12 Oeste 20 Oeste 0 -- -- 74
2020-12-02 00:00:00 4.2 5 Noroeste 14 Oeste 0 -- -- 78
2020-12-01 23:00:00 6.1 12 Sudoeste 20 Sudoeste 0 -- -- 67
2020-12-01 22:00:00 5.8 10 Norte 12 Norte 0 -- -- 68
2020-12-01 21:00:00 4.2 0 Calma 7 Noroeste 0 -- -- 79
2020-12-01 20:00:00 5 3 Noroeste 12 Noroeste 0 -- -- 69
2020-12-01 19:00:00 6.7 10 Noroeste 22 Norte 0 -- -- 65
2020-12-01 18:00:00 7.4 12 Norte 21 Noroeste 0 -- -- 62
2020-12-01 17:00:00 8.8 9 Noroeste 27 Noroeste 0 -- -- 60
2020-12-01 16:00:00 9.8 15 Noroeste 29 Norte 0 -- -- 56
2020-12-01 15:00:00 10.1 23 Norte 34 Noroeste 0 -- -- 54
2020-12-01 14:00:00 12 23 Norte 39 Noroeste 0 -- -- 49
2020-12-01 13:00:00 10.7 16 Noroeste 33 Norte 0 -- -- 55
2020-12-01 12:00:00 7 7 Oeste 10 Oeste 0 -- -- 93
2020-12-01 11:00:00 2.2 4 Noroeste 7 Noroeste 0.2 -- -- 97
2020-12-01 10:00:00 -1.1 0 Calma -- -- 0 -- -- 98
2020-12-01 09:00:00 -2.8 0 Calma -- -- 0 -- -- 99
2020-12-01 08:00:00 -2.5 0 Calma 9 Oeste 0 -- -- 99
2020-12-01 07:00:00 -2.4 5 Oeste 8 Oeste 0 -- -- 99
2020-12-01 06:00:00 -1.4 0 Calma 3 Noroeste 0 -- -- 99
2020-12-01 05:00:00 -1.3 0 Calma 2 Sur 0 -- -- 99
2020-12-01 04:00:00 -1.9 0 Calma 3 Sudeste 0 -- -- 99
2020-12-01 03:00:00 -2.4 2 Nordeste 4 Este 0 -- -- 100
2020-12-01 02:00:00 -3.4 0 Calma 3 Sudeste 0 -- -- 99
2020-12-01 01:00:00 -2.2 0 Calma 6 Nordeste 0 -- -- 99
2020-12-01 00:00:00 -1.9 3 Este 5 Este 0 -- -- 99
2020-11-30 23:00:00 -1.3 3 Sudeste 6 Este 0 -- -- 98
2020-11-30 22:00:00 -0.5 0 Calma 4 Este 0 -- -- 99
2020-11-30 21:00:00 0.5 3 Este 7 Este 0 -- -- 98
2020-11-30 20:00:00 2 4 Este 6 Nordeste 0 -- -- 98
2020-11-30 19:00:00 3.5 5 Este 6 Este 0 -- -- 95
2020-11-30 18:00:00 6.2 3 Este 9 Sudeste 0 -- -- 86
2020-11-30 17:00:00 11.5 2 Sur 8 Este 0 -- -- 68
2020-11-30 16:00:00 11.7 0 Calma 6 Sudeste 0 -- -- 69
2020-11-30 15:00:00 11.5 0 Calma 6 Sur 0 -- -- 70
2020-11-30 14:00:00 10.7 3 Sur 8 Sudeste 0 -- -- 72
2020-11-30 13:00:00 10.6 4 Sudeste 9 Sudeste 0 -- -- 74
2020-11-30 12:00:00 10.7 2 Este 5 Este 0 -- -- 72
2020-11-30 11:00:00 5.3 4 Este 6 Este 0 -- -- 89
2020-11-30 10:00:00 1.6 3 Este 5 Este 0 -- -- 97
2020-11-30 09:00:00 -1.6 0 Calma 4 Este 0 -- -- 99
2020-11-30 08:00:00 -2.2 0 Calma 7 Este 0 -- -- 99
2020-11-30 07:00:00 -2 2 Este 5 Nordeste 0 -- -- 99
2020-11-30 06:00:00 -1.9 2 Sudeste 6 Nordeste 0 -- -- 100
2020-11-30 05:00:00 -2.5 5 Este 6 Este 0 -- -- 99
2020-11-30 04:00:00 -2.2 2 Este 8 Nordeste 0 -- -- 99
2020-11-30 03:00:00 -1.8 2 Sudeste 8 Este 0 -- -- 99
2020-11-30 02:00:00 -1.3 2 Este 6 Este 0 -- -- 99
2020-11-30 01:00:00 -1.1 4 Este 7 Nordeste 0 -- -- 99
2020-11-30 00:00:00 -1.1 5 Este 9 Este 0 -- -- 99
2020-11-29 23:00:00 -0.6 5 Este 8 Este 0 -- -- 98
2020-11-29 22:00:00 0.1 2 Sudeste 7 Este 0 -- -- 97
2020-11-29 21:00:00 0.9 3 Este 8 Nordeste 0 -- -- 97
2020-11-29 20:00:00 1.8 3 Este 7 Nordeste 0 -- -- 95
2020-11-29 19:00:00 3.6 0 Calma 6 Este 0 -- -- 91
2020-11-29 18:00:00 6.3 0 Calma 8 Sudeste 0 -- -- 83
2020-11-29 17:00:00 11.4 6 Sudeste 13 Sudeste 0 -- -- 69
2020-11-29 16:00:00 9.5 6 Sudeste 15 Sudeste 0 -- -- 77
2020-11-29 15:00:00 10.8 7 Sudeste 15 Sudeste 0 -- -- 71
2020-11-29 14:00:00 12.3 7 Este 14 Sudeste 0 -- -- 67
2020-11-29 13:00:00 12.2 5 Sudeste 12 Sudeste 0 -- -- 66
2020-11-29 12:00:00 10.9 5 Sudeste 9 Este 0 -- -- 69
2020-11-29 11:00:00 11 0 Calma 4 Nordeste 0 -- -- 79
2020-11-29 10:00:00 5.4 2 Sudeste 9 Este 0 -- -- 95
2020-11-29 09:00:00 2.6 0 Calma 8 Nordeste 0 -- -- 99
2020-11-29 08:00:00 2.5 4 Este 5 Este 0 -- -- 97
2020-11-29 07:00:00 4.6 5 Sudoeste 9 Sudoeste 0 -- -- 96
2020-11-29 06:00:00 4.2 2 Sudoeste 16 Sudoeste 0 -- -- 97
2020-11-29 05:00:00 4.7 5 Sudoeste 12 Sudoeste 0 -- -- 98
2020-11-29 04:00:00 4.5 3 Sudeste 6 Nordeste 0 -- -- 99
2020-11-29 03:00:00 3.2 3 Nordeste 6 Nordeste 0 -- -- 99
2020-11-29 02:00:00 3 5 Nordeste 8 Nordeste 0 -- -- 98
2020-11-29 01:00:00 4.6 4 Nordeste 6 Nordeste 0 -- -- 97
2020-11-29 00:00:00 5.5 0 Calma 4 Nordeste 0 -- -- 97
2020-11-28 23:00:00 6 0 Calma 10 Sudeste 0 -- -- 95
2020-11-28 22:00:00 6.8 7 Sudeste 11 Sudeste 0 -- -- 93
2020-11-28 21:00:00 6.4 4 Sudeste 6 Sudeste 0 -- -- 92
2020-11-28 20:00:00 7 3 Sudeste 7 Este 0 -- -- 92
2020-11-28 19:00:00 7.3 0 Calma 12 Este 0 -- -- 89
2020-11-28 18:00:00 7.9 8 Este 14 Este 0 -- -- 88
2020-11-28 17:00:00 8.6 7 Este 15 Este 0 -- -- 80
2020-11-28 16:00:00 9.4 9 Sudeste 16 Sudeste 0 -- -- 75
2020-11-28 15:00:00 9.1 9 Sudeste 15 Este 0 -- -- 77
2020-11-28 14:00:00 9 6 Sudeste 11 Este 0 -- -- 76
2020-11-28 13:00:00 10.1 5 Este 10 Este 0 -- -- 73
2020-11-28 12:00:00 8.8 2 Norte 10 Este 0 -- -- 80
2020-11-28 11:00:00 7.6 6 Este 11 Este 0 -- -- 90
2020-11-28 10:00:00 6.7 3 Este 9 Este 0 -- -- 94
2020-11-28 09:00:00 6.2 6 Nordeste 9 Nordeste 0 -- -- 96
2020-11-28 08:00:00 6 3 Nordeste 11 Este 0 -- -- 95
2020-11-28 07:00:00 6.2 6 Este 14 Nordeste 0 -- -- 94
2020-11-28 06:00:00 6.3 4 Norte 9 Este 0 -- -- 94
2020-11-28 05:00:00 6.4 8 Este 18 Este 0 -- -- 94
2020-11-28 04:00:00 6.3 11 Este 25 Nordeste 0 -- -- 93
2020-11-28 03:00:00 6.5 15 Este 31 Este 0 -- -- 93
2020-11-28 02:00:00 6.6 17 Este 29 Este 0 -- -- 95
2020-11-28 01:00:00 6.5 18 Este 24 Este 0 -- -- 94
2020-11-28 00:00:00 6 13 Este 31 Nordeste 0 -- -- 94
2020-11-27 23:00:00 6.2 10 Este 31 Este 0.2 -- -- 94
2020-11-27 22:00:00 7.4 14 Este 28 Nordeste 0.4 -- -- 94
2020-11-27 21:00:00 6.5 9 Este 24 Este 0 -- -- 95
2020-11-27 20:00:00 7 17 Este 36 Este 0.8 -- -- 95
2020-11-27 19:00:00 7.9 15 Este 25 Este 1 -- -- 94
2020-11-27 18:00:00 8 15 Este 28 Este 0 -- -- 92
2020-11-27 17:00:00 8.2 15 Este 32 Este 0 -- -- 90
2020-11-27 16:00:00 8.8 18 Este 31 Nordeste 0 -- -- 90
2020-11-27 15:00:00 8.3 23 Este 40 Este 0.6 -- -- 88
2020-11-27 14:00:00 9.3 26 Este 39 Este 0 -- -- 86
2020-11-27 13:00:00 9.4 24 Este 37 Este 0 -- -- 84
2020-11-27 12:00:00 9.9 23 Este 36 Este 0 -- -- 83
2020-11-27 11:00:00 8.7 21 Este 32 Este 0 -- -- 91
2020-11-27 10:00:00 7.9 17 Este 27 Este 0 -- -- 86
2020-11-27 09:00:00 7.7 18 Este 31 Este 0 -- -- 88
2020-11-27 08:00:00 7.9 22 Este 39 Este 0 -- -- 92
2020-11-27 07:00:00 8.2 25 Este 40 Este 0 -- -- 93
2020-11-27 06:00:00 8.3 24 Este 36 Este 0 -- -- 95
2020-11-27 05:00:00 8.2 23 Este 39 Este 0 -- -- 95
2020-11-27 04:00:00 8.1 25 Este 37 Este 0 -- -- 94
2020-11-27 03:00:00 8.2 22 Este 33 Este 0 -- -- 92
2020-11-27 02:00:00 8 15 Este 28 Este 0 -- -- 92
2020-11-27 01:00:00 8 10 Sudeste 30 Este 0 -- -- 92
2020-11-27 00:00:00 7.9 20 Este 41 Este 0 -- -- 91
2020-11-26 23:00:00 7.2 17 Este 39 Este 0 -- -- 92
2020-11-26 22:00:00 7.6 25 Este 42 Este 0 -- -- 92
2020-11-26 21:00:00 7.3 29 Este 44 Este 0 -- -- 94
2020-11-26 20:00:00 7.3 28 Este 43 Este 0 -- -- 93
2020-11-26 19:00:00 7.5 30 Este 41 Este 0 -- -- 94
2020-11-26 18:00:00 7.3 21 Este 37 Este 0 -- -- 94
2020-11-26 17:00:00 8.2 21 Este 39 Este 0 -- -- 89
2020-11-26 16:00:00 9 26 Este 37 Este 0 -- -- 86
2020-11-26 15:00:00 9.3 21 Este 34 Este 0.2 -- -- 87
2020-11-26 14:00:00 8.3 24 Este 43 Este 0 -- -- 88
2020-11-26 13:00:00 9.7 19 Este 41 Sudeste 0 -- -- 78
2020-11-26 12:00:00 10.1 24 Este 40 Este 0 -- -- 75
2020-11-26 11:00:00 7.7 19 Este 27 Este 0 -- -- 82
2020-11-26 10:00:00 7 18 Este 26 Este 0 -- -- 82
2020-11-26 09:00:00 6 14 Este 22 Este 0 -- -- 86
2020-11-26 08:00:00 5.3 17 Este 24 Este 0 -- -- 88
2020-11-26 07:00:00 5.1 13 Este 29 Este 0 -- -- 87
2020-11-26 06:00:00 5.7 21 Este 29 Este 0 -- -- 82
2020-11-26 05:00:00 5.5 10 Este 18 Este 0 -- -- 84
2020-11-26 04:00:00 5.7 12 Este 19 Este 0 -- -- 85
2020-11-26 03:00:00 5.7 11 Sudeste 18 Sudeste 0 -- -- 87
2020-11-26 02:00:00 5.9 11 Este 26 Este 0 -- -- 86
2020-11-26 01:00:00 6.2 15 Sudeste 24 Este 0 -- -- 82
2020-11-26 00:00:00 6.1 14 Sudeste 28 Este 0 -- -- 81
2020-11-25 23:00:00 6 13 Sudeste 25 Sudeste 0 -- -- 78
2020-11-25 22:00:00 5.9 12 Este 27 Este 0 -- -- 77
2020-11-25 21:00:00 6.3 14 Sudeste 21 Este 0 -- -- 76
2020-11-25 20:00:00 7 8 Sudeste 20 Sudeste 0 -- -- 75
2020-11-25 19:00:00 7.4 10 Sudeste 15 Sudeste 0 -- -- 75
2020-11-25 18:00:00 8.7 6 Sudeste 19 Sudeste 0 -- -- 74
2020-11-25 17:00:00 10.3 9 Sudeste 21 Sudeste 0 -- -- 67
2020-11-25 16:00:00 9.9 7 Sudeste 22 Sur 0 -- -- 69
2020-11-25 15:00:00 9.1 4 Sudeste 21 Sur 0 -- -- 72
2020-11-25 14:00:00 9.3 6 Sudeste 16 Este 0 -- -- 69
2020-11-25 13:00:00 8.4 9 Sudeste 19 Este 0 -- -- 70
2020-11-25 12:00:00 8.6 10 Sudeste 18 Este 0 -- -- 69
2020-11-25 11:00:00 9 9 Este 15 Este 0 -- -- 69
2020-11-25 10:00:00 7.5 2 Este 8 Este 0 -- -- 75
2020-11-25 09:00:00 -1.2 3 Este 8 Nordeste 0 -- -- 96
2020-11-25 08:00:00 -1.3 5 Este 8 Nordeste 0 -- -- 95
2020-11-25 07:00:00 0.6 3 Sudeste 9 Este 0 -- -- 96
2020-11-25 06:00:00 1.3 2 Sur 10 Sur 0 -- -- 93
2020-11-25 05:00:00 2.3 5 Sudeste 17 Sudeste 0 -- -- 90
2020-11-25 04:00:00 1.6 3 Nordeste 11 Sudeste 0 -- -- 90
2020-11-25 03:00:00 0.8 2 Nordeste 16 Sur 0 -- -- 89
2020-11-25 02:00:00 2.9 8 Sur 15 Sur 0 -- -- 88
2020-11-25 01:00:00 3.9 10 Sur 19 Sur 0 -- -- 83
2020-11-25 00:00:00 4.6 11 Sur 19 Sudoeste 0 -- -- 80
2020-11-24 23:00:00 3.6 2 Sudeste 10 Este 0 -- -- 84
2020-11-24 22:00:00 2.5 2 Oeste 9 Este 0 -- -- 82
2020-11-24 21:00:00 1.3 3 Nordeste 6 Sudeste 0 -- -- 81
2020-11-24 20:00:00 4.2 0 Calma 10 Sudoeste 0 -- -- 74
2020-11-24 19:00:00 4.6 4 Sur 10 Sudoeste 0 -- -- 72
2020-11-24 18:00:00 7 7 Sudoeste 15 Sudoeste 0 -- -- 64
2020-11-24 17:00:00 13.1 6 Sudoeste 14 Sudoeste 0 -- -- 43
2020-11-24 16:00:00 13.9 8 Sudoeste 15 Sudoeste 0 -- -- 43
2020-11-24 15:00:00 13.6 7 Sudoeste 15 Oeste 0 -- -- 41
2020-11-24 14:00:00 14.7 7 Sudoeste 15 Oeste 0 -- -- 40
2020-11-24 13:00:00 13.6 10 Sudoeste 24 Sudoeste 0 -- -- 45
2020-11-24 12:00:00 11.8 15 Sudoeste 22 Sudoeste 0 -- -- 50
2020-11-24 11:00:00 12.6 0 Calma 5 Sur 0 -- -- 56
2020-11-24 10:00:00 8.7 0 Calma 6 Este 0 -- -- 67
2020-11-24 09:00:00 -0.2 4 Este 7 Este 0 -- -- 96
2020-11-24 08:00:00 -3 4 Este 7 Nordeste 0 -- -- 96
2020-11-24 07:00:00 -3.1 5 Este 7 Nordeste 0 -- -- 95
2020-11-24 06:00:00 -2.8 5 Este 7 Este 0 -- -- 93
2020-11-24 05:00:00 -2.8 4 Este 7 Este 0 -- -- 94
2020-11-24 04:00:00 -2.5 3 Este 8 Este 0 -- -- 93
2020-11-24 03:00:00 -2.2 3 Este 5 Este 0 -- -- 92
2020-11-24 02:00:00 -2.3 4 Este 6 Este 0 -- -- 92
2020-11-24 01:00:00 -1.5 4 Este 5 Nordeste 0 -- -- 89
2020-11-24 00:00:00 -0.4 0 Calma 4 Este 0 -- -- 87
2020-11-23 23:00:00 -0.5 4 Este 5 Este 0 -- -- 88
2020-11-23 22:00:00 0.2 2 Este 6 Este 0 -- -- 85
2020-11-23 21:00:00 0.6 4 Este 8 Este 0 -- -- 84
2020-11-23 20:00:00 1.7 5 Este 6 Este 0 -- -- 80
2020-11-23 19:00:00 4 6 Este 7 Este 0 -- -- 72
2020-11-23 18:00:00 8.3 2 Este 9 Este 0 -- -- 60
2020-11-23 17:00:00 16.3 3 Sur 8 Sudeste 0 -- -- 39
2020-11-23 16:00:00 16.9 0 Calma 6 Sur 0 -- -- 29
2020-11-23 15:00:00 16.8 3 Noroeste 8 Sudoeste 0 -- -- 33
2020-11-23 14:00:00 16.6 0 Calma 8 Oeste 0 -- -- 38
2020-11-23 13:00:00 15.1 0 Calma 6 Nordeste 0 -- -- 45
2020-11-23 12:00:00 13.7 2 Sudeste 7 Sudeste 0 -- -- 47
2020-11-23 11:00:00 11.3 0 Calma 2 Este 0 -- -- 55
2020-11-23 10:00:00 5 2 Este 4 Este 0 -- -- 70
2020-11-23 09:00:00 -2.6 0 Calma 4 Este 0 -- -- 94
2020-11-23 08:00:00 -4.8 0 Calma 3 Este 0 -- -- 95
2020-11-23 07:00:00 -4.7 3 Este 4 Este 0 -- -- 96
2020-11-23 06:00:00 -4.3 0 Calma 4 Este 0 -- -- 96
2020-11-23 05:00:00 -4.1 2 Este 3 Este 0 -- -- 95
2020-11-23 04:00:00 -3.7 3 Este 4 Nordeste 0 -- -- 95
2020-11-23 03:00:00 -3.6 3 Este 4 Este 0 -- -- 94
2020-11-23 02:00:00 -3.3 0 Calma 5 Nordeste 0 -- -- 94
2020-11-23 01:00:00 -2.9 2 Este 4 Este 0 -- -- 93
2020-11-23 00:00:00 -2.3 3 Este 5 Este 0 -- -- 91
2020-11-22 23:00:00 -2.1 3 Este 5 Este 0 -- -- 90
2020-11-22 22:00:00 -1.3 4 Este 7 Nordeste 0 -- -- 87
2020-11-22 21:00:00 -0.6 3 Este 4 Nordeste 0 -- -- 84
2020-11-22 20:00:00 0.7 3 Este 6 Nordeste 0 -- -- 79
2020-11-22 19:00:00 3 3 Este 5 Este 0 -- -- 72
2020-11-22 18:00:00 7.7 0 Calma 13 Oeste 0 -- -- 57
2020-11-22 17:00:00 14.1 11 Oeste 19 Sudoeste 0 -- -- 40
2020-11-22 16:00:00 15.4 11 Oeste 21 Oeste 0 -- -- 40
2020-11-22 15:00:00 15.2 15 Oeste 32 Oeste 0 -- -- 41
2020-11-22 14:00:00 13.8 24 Oeste 35 Oeste 0 -- -- 44
2020-11-22 13:00:00 12.9 16 Oeste 24 Oeste 0 -- -- 45
2020-11-22 12:00:00 10.8 7 Oeste 11 Oeste 0 -- -- 54
2020-11-22 11:00:00 8.1 2 Noroeste 5 Noroeste 0 -- -- 61
2020-11-22 10:00:00 3.6 2 Noroeste 3 Noroeste 0 -- -- 74
2020-11-22 09:00:00 -2 0 Calma 4 Nordeste 0 -- -- 94
2020-11-22 08:00:00 -4.7 3 Nordeste 5 Este 0 -- -- 95
2020-11-22 07:00:00 -4.7 2 Este 4 Este 0 -- -- 93
2020-11-22 06:00:00 -3.8 4 Este 7 Este 0 -- -- 92
2020-11-22 05:00:00 -3.8 5 Este 8 Este 0 -- -- 90
2020-11-22 04:00:00 -3.8 6 Este 8 Este 0 -- -- 89
2020-11-22 03:00:00 -3.8 6 Este 8 Este 0 -- -- 88
2020-11-22 02:00:00 -3.7 6 Este 8 Este 0 -- -- 86
2020-11-22 01:00:00 -2.6 2 Este 7 Este 0 -- -- 82
2020-11-22 00:00:00 -2.3 2 Este 6 Este 0 -- -- 81
2020-11-21 23:00:00 -2.3 5 Este 9 Este 0 -- -- 79
2020-11-21 22:00:00 -2.3 3 Este 6 Este 0 -- -- 80
2020-11-21 21:00:00 -1.5 5 Este 5 Este 0 -- -- 77
2020-11-21 20:00:00 0 0 Calma 5 Nordeste 0 -- -- 70
2020-11-21 19:00:00 2.3 0 Calma 6 Este 0 -- -- 56
2020-11-21 18:00:00 6.7 6 Este 19 Este 0 -- -- 42
2020-11-21 17:00:00 12.6 13 Este 18 Este 0 -- -- 27
2020-11-21 16:00:00 13.6 12 Sudeste 19 Este 0 -- -- 23
2020-11-21 15:00:00 13.5 15 Sudeste 20 Este 0 -- -- 24
2020-11-21 14:00:00 13.5 10 Sudeste 17 Sudeste 0 -- -- 29
2020-11-21 13:00:00 12.5 9 Sudeste 17 Sur 0 -- -- 28
2020-11-21 12:00:00 10.9 8 Sudeste 13 Sur 0 -- -- 33
2020-11-21 11:00:00 9.9 6 Sudeste 11 Sudeste 0 -- -- 40
2020-11-21 10:00:00 7.7 0 Calma 6 Este 0 -- -- 48
2020-11-21 09:00:00 -0.2 0 Calma 6 Este 0 -- -- 80
2020-11-21 08:00:00 -3.2 3 Sudeste 8 Nordeste 0 -- -- 85
2020-11-21 07:00:00 -2.9 2 Este 10 Nordeste 0 -- -- 84
2020-11-21 06:00:00 -2.7 0 Calma 5 Este 0 -- -- 80
2020-11-21 05:00:00 -2 0 Calma 8 Este 0 -- -- 76
2020-11-21 04:00:00 0.8 4 Este 10 Noroeste 0 -- -- 59
2020-11-21 03:00:00 3.2 5 Sudoeste 13 Noroeste 0 -- -- 47
2020-11-21 02:00:00 3.8 10 Nordeste 26 Norte 0 -- -- 44
2020-11-21 01:00:00 5.1 4 Oeste 22 Oeste 0 -- -- 41
2020-11-21 00:00:00 4.4 16 Oeste 24 Oeste 0 -- -- 47
2020-11-20 23:00:00 3.9 9 Oeste 14 Noroeste 0 -- -- 51
2020-11-20 22:00:00 4.7 11 Oeste 17 Oeste 0 -- -- 54
2020-11-20 21:00:00 4.7 8 Sudoeste 18 Noroeste 0 -- -- 60
2020-11-20 20:00:00 4.9 9 Noroeste 27 Norte 0 -- -- 62
2020-11-20 19:00:00 5.7 22 Norte 28 Norte 0 -- -- 59
2020-11-20 18:00:00 7.4 24 Norte 28 Norte 0 -- -- 49
2020-11-20 17:00:00 10.9 15 Norte 28 Norte 0 -- -- 42
2020-11-20 16:00:00 12.7 15 Norte 36 Noroeste 0 -- -- 35
2020-11-20 15:00:00 12.8 24 Norte 37 Norte 0 -- -- 34
2020-11-20 14:00:00 12.6 24 Norte 34 Norte 0 -- -- 37
2020-11-20 13:00:00 11.2 18 Norte 31 Norte 0 -- -- 44
2020-11-20 12:00:00 10 19 Norte 33 Norte 0 -- -- 51
2020-11-20 11:00:00 7.3 5 Noroeste 14 Sudoeste 0 -- -- 74
2020-11-20 10:00:00 3.2 5 Oeste 10 Noroeste 0 -- -- 94
2020-11-20 09:00:00 0.3 0 Calma 5 Sudoeste 0 -- -- 99
2020-11-20 08:00:00 0.6 3 Noroeste 12 Oeste 0 -- -- 99
2020-11-20 07:00:00 0.8 6 Oeste 13 Oeste 0 -- -- 98
2020-11-20 06:00:00 -0.4 3 Oeste 11 Oeste 0 -- -- 94
2020-11-20 05:00:00 0.9 3 Noroeste 12 Oeste 0 -- -- 90
2020-11-20 04:00:00 1.7 0 Calma 23 Noroeste 0 -- -- 91
2020-11-20 03:00:00 3.2 9 Norte 32 Norte 0 -- -- 84
2020-11-20 02:00:00 4.2 8 Noroeste 23 Noroeste 0 -- -- 82
2020-11-20 01:00:00 2 9 Oeste 13 Oeste 0 -- -- 88
2020-11-20 00:00:00 4 2 Oeste 22 Norte 0 -- -- 86
2020-11-19 23:00:00 4 3 Oeste 10 Noroeste 0 -- -- 90
2020-11-19 22:00:00 6.5 4 Norte 18 Norte 0 -- -- 85
2020-11-19 21:00:00 7.8 5 Norte 22 Norte 0 -- -- 84
2020-11-19 20:00:00 8.6 3 Este 22 Sudoeste 0 -- -- 83
2020-11-19 19:00:00 9.7 10 Nordeste 28 Norte 0 -- -- 79
2020-11-19 18:00:00 11.4 17 Norte 32 Norte 0 -- -- 75
2020-11-19 17:00:00 14.4 23 Norte 33 Norte 0 -- -- 65
2020-11-19 16:00:00 16.9 15 Norte 28 Norte 0 -- -- 57
2020-11-19 15:00:00 17 20 Norte 35 Norte 0 -- -- 60
2020-11-19 14:00:00 17.4 19 Norte 30 Noroeste 0 -- -- 59
2020-11-19 13:00:00 17.2 17 Norte 26 Norte 0 -- -- 57
2020-11-19 12:00:00 16.2 18 Norte 29 Norte 0 -- -- 64
2020-11-19 11:00:00 12.6 5 Oeste 9 Noroeste 0 -- -- 76
2020-11-19 10:00:00 8.7 4 Oeste 5 Oeste 0 -- -- 90
2020-11-19 09:00:00 3.8 0 Calma 6 Sur 0 -- -- 99
2020-11-19 08:00:00 0.8 0 Calma 4 Este 0 -- -- 100
2020-11-19 07:00:00 1.1 0 Calma 5 Nordeste 0 -- -- 99
2020-11-19 06:00:00 1.1 0 Calma 5 Este 0 -- -- 99
2020-11-19 05:00:00 1.6 2 Sur 4 Sudeste 0 -- -- 98
2020-11-19 04:00:00 2.2 2 Este 5 Nordeste 0 -- -- 99
2020-11-19 03:00:00 2.7 3 Este 8 Este 0 -- -- 98
2020-11-19 02:00:00 3 0 Calma 4 Noroeste 0 -- -- 98
2020-11-19 01:00:00 3.9 5 Noroeste 9 Oeste 0 -- -- 98
2020-11-19 00:00:00 4.6 2 Sudoeste 7 Noroeste 0 -- -- 98
2020-11-18 23:00:00 3.6 0 Calma 4 Este 0 -- -- 94
2020-11-18 22:00:00 4.2 0 Calma 2 Este 0 -- -- 95
2020-11-18 21:00:00 4.9 0 Calma 4 Nordeste 0 -- -- 91
2020-11-18 20:00:00 6.2 2 Nordeste 4 Este 0 -- -- 90
2020-11-18 19:00:00 7.6 2 Norte 5 Sudoeste 0 -- -- 83
2020-11-18 18:00:00 12.4 2 Noroeste 12 Oeste 0 -- -- 68
2020-11-18 17:00:00 17.6 10 Oeste 22 Oeste 0 -- -- 53
2020-11-18 16:00:00 18.7 15 Oeste 30 Oeste 0 -- -- 48
2020-11-18 15:00:00 18.5 18 Oeste 26 Noroeste 0 -- -- 47
2020-11-18 14:00:00 17.9 16 Oeste 23 Oeste 0 -- -- 51
2020-11-18 13:00:00 17 13 Oeste 20 Oeste 0 -- -- 63
2020-11-18 12:00:00 15.3 7 Oeste 11 Oeste 0 -- -- 71
2020-11-18 11:00:00 13.9 3 Oeste 5 Oeste 0 -- -- 72
2020-11-18 10:00:00 9.9 0 Calma 4 Este 0 -- -- 95
2020-11-18 09:00:00 3.1 2 Este 3 Este 0 -- -- 100
2020-11-18 08:00:00 1.9 0 Calma 4 Este 0 -- -- 99
2020-11-18 07:00:00 3 3 Nordeste 7 Nordeste 0 -- -- 99
2020-11-18 06:00:00 2.2 5 Nordeste 7 Nordeste 0 -- -- 100
2020-11-18 05:00:00 1.7 6 Nordeste 8 Nordeste 0 -- -- 99
2020-11-18 04:00:00 2.2 4 Nordeste 7 Nordeste 0 -- -- 99
2020-11-18 03:00:00 2.9 4 Este 8 Este 0 -- -- 98
2020-11-18 02:00:00 3.7 0 Calma 8 Sur 0 -- -- 98
2020-11-18 01:00:00 4.4 0 Calma 8 Norte 0 -- -- 96
2020-11-18 00:00:00 5.4 2 Norte 7 Nordeste 0 -- -- 96
2020-11-17 23:00:00 6.1 3 Nordeste 12 Oeste 0 -- -- 98
2020-11-17 22:00:00 4.7 5 Este 8 Este 0 -- -- 95
2020-11-17 21:00:00 4.9 0 Calma 7 Nordeste 0 -- -- 92
2020-11-17 20:00:00 6 6 Nordeste 8 Nordeste 0 -- -- 88
2020-11-17 19:00:00 8.5 2 Sudeste 5 Sudeste 0 -- -- 78
2020-11-17 18:00:00 11.4 2 Oeste 9 Oeste 0 -- -- 66
2020-11-17 17:00:00 18.2 8 Oeste 9 Oeste 0 -- -- 34
2020-11-17 16:00:00 19.4 5 Oeste 10 Sudoeste 0 -- -- 45
2020-11-17 15:00:00 19.1 5 Oeste 10 Oeste 0 -- -- 51
2020-11-17 14:00:00 17.4 7 Oeste 10 Oeste 0 -- -- 58
2020-11-17 13:00:00 14.7 6 Oeste 11 Oeste 0 -- -- 69
2020-11-17 12:00:00 10.2 6 Noroeste 9 Oeste 0 -- -- 94
2020-11-17 11:00:00 6.5 0 Calma 5 Oeste 0 -- -- 97
2020-11-17 10:00:00 3.4 0 Calma 4 Noroeste 0 -- -- 99
2020-11-17 09:00:00 1.9 2 Oeste 5 Noroeste 0 -- -- 100
2020-11-17 08:00:00 1.7 0 Calma 6 Nordeste 0 -- -- 100
2020-11-17 07:00:00 1.3 5 Nordeste 6 Nordeste 0.2 -- -- 100
2020-11-17 06:00:00 1.2 0 Calma 3 Norte 0 -- -- 100
2020-11-17 05:00:00 1.5 0 Calma 4 Sur 0 -- -- 100
2020-11-17 04:00:00 1.6 0 Calma 2 Este 0 -- -- 100
2020-11-17 03:00:00 1.2 0 Calma 4 Nordeste 0 -- -- 100
2020-11-17 02:00:00 1.1 0 Calma 2 Nordeste 0 -- -- 99
2020-11-17 01:00:00 2 0 Calma 5 Este 0 -- -- 99
2020-11-17 00:00:00 2.4 0 Calma 4 Este 0 -- -- 100
2020-11-16 23:00:00 3 0 Calma 4 Noroeste 0 -- -- 99
2020-11-16 22:00:00 4 0 Calma 5 Oeste 0 -- -- 98
2020-11-16 21:00:00 4.3 0 Calma 3 Sudeste 0 -- -- 96
2020-11-16 20:00:00 5.4 2 Este 5 Oeste 0 -- -- 96
2020-11-16 19:00:00 7.5 3 Noroeste 8 Oeste 0 -- -- 90
2020-11-16 18:00:00 8.8 4 Noroeste 15 Noroeste 0 -- -- 85
2020-11-16 17:00:00 12.7 14 Noroeste 26 Oeste 0 -- -- 71
2020-11-16 16:00:00 14.6 18 Noroeste 26 Oeste 0 -- -- 64
2020-11-16 15:00:00 15.2 16 Oeste 30 Sudoeste 0 -- -- 63
2020-11-16 14:00:00 16.1 16 Oeste 27 Oeste 0 -- -- 63
2020-11-16 13:00:00 13.3 10 Oeste 18 Oeste 0 -- -- 78
2020-11-16 12:00:00 12.6 9 Noroeste 12 Norte 0 -- -- 83
2020-11-16 11:00:00 11.1 10 Norte 18 Oeste 0 -- -- 90
2020-11-16 10:00:00 11.1 12 Oeste 17 Oeste 0 -- -- 95
2020-11-16 09:00:00 10.5 9 Oeste 24 Oeste 0 -- -- 97
2020-11-16 08:00:00 10.6 14 Oeste 24 Oeste 0 -- -- 96
2020-11-16 07:00:00 11 10 Oeste 22 Sudoeste 0 -- -- 97
2020-11-16 06:00:00 11 11 Oeste 21 Oeste 0 -- -- 97
2020-11-16 05:00:00 11.4 12 Oeste 21 Oeste 0 -- -- 97
2020-11-16 04:00:00 11.4 13 Oeste 26 Sudoeste 1 -- -- 98
2020-11-16 03:00:00 12 13 Oeste 23 Sudoeste 0 -- -- 93
2020-11-16 02:00:00 11.9 12 Oeste 22 Sudoeste 0.2 -- -- 93
2020-11-16 01:00:00 12.1 13 Sudoeste 24 Sudoeste 0 -- -- 92
2020-11-16 00:00:00 12.4 10 Sudoeste 26 Sudoeste 0 -- -- 91
2020-11-15 23:00:00 12.8 19 Sudoeste 34 Sudoeste 0 -- -- 88
2020-11-15 22:00:00 12.6 14 Sudoeste 33 Sur 0 -- -- 89
2020-11-15 21:00:00 12.3 19 Sudoeste 32 Sudoeste 0 -- -- 90
2020-11-15 20:00:00 11.7 18 Sudoeste 36 Sudoeste 0 -- -- 93
2020-11-15 19:00:00 11.6 22 Sudoeste 36 Sudoeste 0 -- -- 93
2020-11-15 18:00:00 11.9 24 Sudoeste 37 Sudoeste 0 -- -- 91
2020-11-15 17:00:00 12.3 24 Sudoeste 42 Sudoeste 0 -- -- 89
2020-11-15 16:00:00 12.8 26 Sudoeste 45 Sur 0 -- -- 86
2020-11-15 15:00:00 13 27 Sudoeste 44 Sudoeste 0 -- -- 85
2020-11-15 14:00:00 13.4 28 Sudoeste 49 Sudoeste 0 -- -- 83
2020-11-15 13:00:00 14.3 30 Sudoeste 46 Sudoeste 0 -- -- 81
2020-11-15 12:00:00 14.2 26 Sudoeste 40 Sudoeste 0 -- -- 80
2020-11-15 11:00:00 13.7 24 Sudoeste 41 Sur 0 -- -- 82
2020-11-15 10:00:00 10.9 24 Sudoeste 46 Sudoeste 0 -- -- 91
2020-11-15 09:00:00 10 31 Sudoeste 43 Sudoeste 0 -- -- 94
2020-11-15 08:00:00 9.6 27 Sudoeste 40 Sudoeste 0 -- -- 96
2020-11-15 07:00:00 9.1 20 Sudoeste 30 Sudoeste 0 -- -- 95
2020-11-15 06:00:00 9 12 Sudoeste 23 Sudoeste 0 -- -- 94
2020-11-15 05:00:00 9.4 12 Sudoeste 27 Sudoeste 0 -- -- 92
2020-11-15 04:00:00 9.3 10 Sudoeste 24 Sudoeste 0 -- -- 93
2020-11-15 03:00:00 9.7 13 Sudoeste 26 Sudoeste 0 -- -- 94
2020-11-15 02:00:00 9.4 13 Sudoeste 23 Sudoeste 0 -- -- 94
2020-11-15 01:00:00 9.3 15 Sudoeste 29 Sudoeste 0 -- -- 95
2020-11-15 00:00:00 9.3 11 Sudoeste 25 Sudoeste 0 -- -- 94
2020-11-14 23:00:00 9.3 16 Sudoeste 30 Sudoeste 0 -- -- 93
2020-11-14 22:00:00 9 18 Sudoeste 27 Sur 0 -- -- 94
2020-11-14 21:00:00 9.3 16 Sudoeste 26 Sudoeste 0 -- -- 94
2020-11-14 20:00:00 9.9 12 Sudoeste 24 Sur 0 -- -- 95
2020-11-14 19:00:00 10 13 Sur 21 Sur 0 -- -- 94
2020-11-14 18:00:00 10.4 12 Sudoeste 21 Sur 0 -- -- 92
2020-11-14 17:00:00 11 9 Sudoeste 15 Sudoeste 0 -- -- 90
2020-11-14 16:00:00 10.8 3 Sur 12 Sur 0.4 -- -- 93
2020-11-14 15:00:00 10.8 8 Sudoeste 18 Sudoeste 0.2 -- -- 91
2020-11-14 14:00:00 10.9 6 Sudoeste 15 Oeste 0.2 -- -- 88
2020-11-14 13:00:00 10.6 10 Sudoeste 19 Sur 0 -- -- 88
2020-11-14 12:00:00 10.8 9 Sudoeste 22 Sur 0 -- -- 83
2020-11-14 11:00:00 10.8 10 Oeste 18 Sudoeste 0 -- -- 82
2020-11-14 10:00:00 8.1 3 Oeste 8 Oeste 0 -- -- 97
2020-11-14 09:00:00 3.1 2 Sudeste 7 Nordeste 0 -- -- 99
2020-11-14 08:00:00 1.6 5 Nordeste 6 Nordeste 0 -- -- 98
2020-11-14 07:00:00 1.9 5 Nordeste 7 Nordeste 0 -- -- 99
2020-11-14 06:00:00 3.3 4 Este 9 Nordeste 0 -- -- 99
2020-11-14 05:00:00 3.5 5 Este 9 Este 0 -- -- 98
2020-11-14 04:00:00 4.5 4 Este 9 Este 0 -- -- 95
2020-11-14 03:00:00 5.9 3 Este 7 Nordeste 0 -- -- 94
2020-11-14 02:00:00 6.5 3 Este 6 Sudeste 0 -- -- 93
2020-11-14 01:00:00 6.8 4 Sudeste 7 Sudeste 0 -- -- 90
2020-11-14 00:00:00 6.5 0 Calma 7 Este 0 -- -- 93
2020-11-13 23:00:00 6 0 Calma 5 Este 0 -- -- 94
2020-11-13 22:00:00 6 0 Calma 7 Nordeste 0 -- -- 93
2020-11-13 21:00:00 6.2 4 Este 7 Este 0 -- -- 92
2020-11-13 20:00:00 6.7 4 Este 7 Este 0 -- -- 87
2020-11-13 19:00:00 7.5 2 Sur 12 Sudoeste 0 -- -- 85
2020-11-13 18:00:00 10.1 8 Sudoeste 15 Sur 0 -- -- 76
2020-11-13 17:00:00 14.9 6 Sudoeste 18 Sur 0 -- -- 59
2020-11-13 16:00:00 15.7 9 Sur 19 Sur 0 -- -- 55
2020-11-13 15:00:00 14.4 7 Sudoeste 18 Sur 0 -- -- 63
2020-11-13 14:00:00 14.5 10 Sur 20 Sur 0 -- -- 62
2020-11-13 13:00:00 15.3 9 Sur 17 Sudoeste 0 -- -- 62
2020-11-13 12:00:00 13.4 9 Sur 14 Sur 0 -- -- 67
2020-11-13 11:00:00 13.1 4 Sudeste 9 Este 0 -- -- 69
2020-11-13 10:00:00 8 0 Calma 4 Sudeste 0 -- -- 93
2020-11-13 09:00:00 5 2 Sudeste 7 Este 0 -- -- 98
2020-11-13 08:00:00 3.9 3 Este 8 Este 0 -- -- 98
2020-11-13 07:00:00 4.1 4 Este 7 Este 0 -- -- 99
2020-11-13 06:00:00 4.1 4 Este 6 Este 0 -- -- 98
2020-11-13 05:00:00 4.3 3 Este 4 Este 0 -- -- 98
2020-11-13 04:00:00 4.6 3 Nordeste 4 Este 0 -- -- 97
2020-11-13 03:00:00 5 3 Este 6 Este 0 -- -- 96
2020-11-13 02:00:00 5.7 4 Este 5 Este 0 -- -- 94
2020-11-13 01:00:00 6.2 0 Calma 4 Este 0 -- -- 94
2020-11-13 00:00:00 6.5 0 Calma 12 Sudeste 0 -- -- 92
2020-11-12 23:00:00 6.8 5 Sudeste 10 Sudeste 0 -- -- 95
2020-11-12 22:00:00 5.9 5 Este 6 Este 0 -- -- 94
2020-11-12 21:00:00 5.2 0 Calma 10 Este 0 -- -- 93
2020-11-12 20:00:00 7.6 7 Este 13 Este 0 -- -- 86
2020-11-12 19:00:00 8.2 8 Este 12 Sudeste 0 -- -- 85
2020-11-12 18:00:00 8.5 2 Nordeste 8 Sudeste 0 -- -- 85
2020-11-12 17:00:00 12 6 Este 11 Sudeste 0 -- -- 71
2020-11-12 16:00:00 14.5 7 Sudeste 12 Este 0 -- -- 60
2020-11-12 15:00:00 15.5 6 Este 12 Este 0 -- -- 62
2020-11-12 14:00:00 15.5 0 Calma 7 Este 0 -- -- 57
2020-11-12 13:00:00 14.2 0 Calma 6 Oeste 0 -- -- 64
2020-11-12 12:00:00 11.3 3 Oeste 6 Oeste 0 -- -- 78
2020-11-12 11:00:00 9.8 0 Calma 2 Este 0 -- -- 87
2020-11-12 10:00:00 6.8 0 Calma 6 Nordeste 0 -- -- 98
2020-11-12 09:00:00 3.9 3 Nordeste 7 Nordeste 0 -- -- 99
2020-11-12 08:00:00 2.3 0 Calma -- -- 0 -- -- 99
2020-11-12 07:00:00 3.2 0 Calma -- -- 0 -- -- 99
2020-11-12 06:00:00 3.4 0 Calma -- -- 0 -- -- 99
2020-11-12 05:00:00 3.3 0 Calma -- -- 0 -- -- 98
2020-11-12 04:00:00 3.4 0 Calma -- -- 0 -- -- 98
2020-11-12 03:00:00 3.4 0 Calma -- -- 0 -- -- 98
2020-11-12 02:00:00 2.5 0 Calma -- -- 0 -- -- 98
2020-11-12 01:00:00 2.8 0 Calma 7 Nordeste 0 -- -- 98
2020-11-12 00:00:00 2.7 3 Este 8 Nordeste 0 -- -- 97
2020-11-11 23:00:00 3.2 0 Calma 9 Nordeste 0 -- -- 96
2020-11-11 22:00:00 4.3 0 Calma 4 Este 0 -- -- 94
2020-11-11 21:00:00 6.4 2 Noroeste 12 Sudoeste 0 -- -- 89
2020-11-11 20:00:00 7.7 5 Sudoeste 19 Sudoeste 0 -- -- 85
2020-11-11 19:00:00 8.2 14 Sudoeste 19 Sudoeste 0 -- -- 79
2020-11-11 18:00:00 9.7 13 Sudoeste 21 Sudoeste 0 -- -- 70
2020-11-11 17:00:00 13.1 14 Sudoeste 32 Sudoeste 0 -- -- 55
2020-11-11 16:00:00 13.5 21 Sudoeste 36 Sudoeste 0 -- -- 54
2020-11-11 15:00:00 15.4 19 Sudoeste 32 Sudoeste 0 -- -- 51
2020-11-11 14:00:00 15.2 17 Sudoeste 35 Sur 0 -- -- 56
2020-11-11 13:00:00 14.3 22 Sudoeste 36 Sudoeste 0 -- -- 60
2020-11-11 12:00:00 13.8 16 Sudoeste 29 Sur 0 -- -- 63
2020-11-11 11:00:00 13 8 Sur 17 Sur 0 -- -- 70
2020-11-11 10:00:00 9.1 3 Este 5 Este 0 -- -- 88
2020-11-11 09:00:00 1.4 3 Este 5 Este 0 -- -- 98
2020-11-11 08:00:00 -1.1 3 Este 7 Este 0 -- -- 100
2020-11-11 07:00:00 -0.9 2 Este 4 Nordeste 0 -- -- 100
2020-11-11 06:00:00 -1 3 Nordeste 6 Este 0 -- -- 100
2020-11-11 05:00:00 -0.6 0 Calma 5 Este 0 -- -- 100
2020-11-11 04:00:00 -0.5 2 Nordeste 5 Este 0 -- -- 100
2020-11-11 03:00:00 0 0 Calma 6 Nordeste 0 -- -- 99
2020-11-11 02:00:00 0 2 Nordeste 5 Este 0 -- -- 99
2020-11-11 01:00:00 0.6 2 Este 5 Este 0 -- -- 99
2020-11-11 00:00:00 1.1 0 Calma 6 Este 0 -- -- 99
2020-11-10 23:00:00 1.6 0 Calma 4 Este 0 -- -- 98
2020-11-10 22:00:00 2.2 4 Este 6 Este 0 -- -- 97
2020-11-10 21:00:00 3.8 5 Este 7 Este 0 -- -- 97
2020-11-10 20:00:00 4.3 4 Nordeste 6 Nordeste 0 -- -- 95
2020-11-10 19:00:00 6.3 3 Sudeste 4 Sudeste 0 -- -- 90
2020-11-10 18:00:00 9.6 0 Calma 4 Sudoeste 0 -- -- 75
2020-11-10 17:00:00 15.1 0 Calma 8 Sudoeste 0 -- -- 50
2020-11-10 16:00:00 16.9 3 Sudeste 12 Oeste 0 -- -- 50
2020-11-10 15:00:00 15.1 7 Oeste 15 Oeste 0 -- -- 58
2020-11-10 14:00:00 12.9 9 Oeste 15 Noroeste 0 -- -- 78
2020-11-10 13:00:00 9.2 9 Oeste 15 Oeste 0 -- -- 99
2020-11-10 12:00:00 7.4 9 Oeste 16 Noroeste 0 -- -- 99
2020-11-10 11:00:00 6.4 11 Oeste 15 Oeste 0 -- -- 99
2020-11-10 10:00:00 5.5 3 Oeste 8 Oeste 0 -- -- 99
2020-11-10 09:00:00 4.2 0 Calma 6 Oeste 0 -- -- 100
2020-11-10 08:00:00 2.8 0 Calma 10 Oeste 0 -- -- 100
2020-11-10 07:00:00 2.8 4 Oeste 5 Oeste 0.2 -- -- 100
2020-11-10 06:00:00 2.5 4 Oeste 5 Oeste 0 -- -- 99
2020-11-10 05:00:00 2 0 Calma 3 Sudoeste 0 -- -- 100
2020-11-10 04:00:00 1.1 0 Calma 2 Norte 0 -- -- 100
2020-11-10 03:00:00 1 0 Calma 5 Este 0 -- -- 100
2020-11-10 02:00:00 1.1 4 Este 5 Este 0 -- -- 100
2020-11-10 01:00:00 1.5 0 Calma 5 Nordeste 0 -- -- 99
2020-11-10 00:00:00 2.1 0 Calma 5 Nordeste 0 -- -- 99
2020-11-09 23:00:00 3.2 4 Nordeste 5 Nordeste 0 -- -- 98
2020-11-09 22:00:00 3.9 0 Calma 3 Noroeste 0 -- -- 97
2020-11-09 21:00:00 5.2 2 Noroeste 9 Oeste 0 -- -- 96
2020-11-09 20:00:00 8.1 2 Oeste 17 Sudoeste 0 -- -- 89
2020-11-09 19:00:00 9.9 10 Sudoeste 18 Sudoeste 0 -- -- 85
2020-11-09 18:00:00 10.6 9 Sudoeste 16 Sudoeste 0 -- -- 83
2020-11-09 17:00:00 11.9 9 Sudoeste 16 Sudoeste 0 -- -- 72
2020-11-09 16:00:00 12.5 9 Sudoeste 21 Sur 0 -- -- 72
2020-11-09 15:00:00 12.9 5 Oeste 14 Oeste 0 -- -- 72
2020-11-09 14:00:00 14.1 9 Oeste 21 Oeste 0 -- -- 68
2020-11-09 13:00:00 12.6 9 Oeste 24 Sudoeste 0 -- -- 76
2020-11-09 12:00:00 13.8 9 Sudoeste 18 Oeste 0 -- -- 72
2020-11-09 11:00:00 11.6 10 Sudoeste 19 Sudoeste 0 -- -- 83
2020-11-09 10:00:00 9.5 4 Oeste 9 Oeste 0 -- -- 92
2020-11-09 09:00:00 8.3 3 Sudeste 21 Sudoeste 0.4 -- -- 94
2020-11-09 08:00:00 8 5 Sudoeste 20 Sudoeste 0 -- -- 92
2020-11-09 07:00:00 4.2 3 Nordeste 8 Nordeste 0 -- -- 97
2020-11-09 06:00:00 4.2 0 Calma 11 Nordeste 0 -- -- 97
2020-11-09 05:00:00 3.8 6 Nordeste 9 Este 0 -- -- 99
2020-11-09 04:00:00 3.8 8 Nordeste 11 Nordeste 0 -- -- 99
2020-11-09 03:00:00 3.1 6 Nordeste 8 Nordeste 0 -- -- 98
2020-11-09 02:00:00 4.2 5 Este 9 Nordeste 0 -- -- 96
2020-11-09 01:00:00 4.3 0 Calma 8 Este 0 -- -- 97
2020-11-09 00:00:00 4.5 4 Este 7 Este 0 -- -- 96
2020-11-08 23:00:00 5.1 4 Este 9 Este 0 -- -- 94
2020-11-08 22:00:00 5.6 4 Nordeste 8 Nordeste 0 -- -- 93
2020-11-08 21:00:00 8.2 5 Sudeste 23 Sur 0 -- -- 85
2020-11-08 20:00:00 8.8 9 Sudeste 18 Sudeste 0 -- -- 81
2020-11-08 19:00:00 9 10 Sur 16 Sur 0 -- -- 81
2020-11-08 18:00:00 9.7 10 Sudoeste 21 Sur 0 -- -- 77
2020-11-08 17:00:00 13.2 14 Sur 36 Sur 0 -- -- 62
2020-11-08 16:00:00 13.4 18 Sur 28 Sur 0 -- -- 64
2020-11-08 15:00:00 14 13 Sur 26 Sur 0 -- -- 65
2020-11-08 14:00:00 12.2 17 Sur 30 Sudeste 0 -- -- 70
2020-11-08 13:00:00 12.4 11 Sudoeste 28 Sur 0 -- -- 72
2020-11-08 12:00:00 13.8 19 Sur 35 Sur 0 -- -- 67
2020-11-08 11:00:00 10.9 12 Sur 20 Sur 0 -- -- 83
2020-11-08 10:00:00 9.3 9 Sur 17 Sur 0 -- -- 87
2020-11-08 09:00:00 9.1 8 Sudeste 13 Sudeste 0 -- -- 89
2020-11-08 08:00:00 7.3 6 Sudeste 15 Sur 0 -- -- 94
2020-11-08 07:00:00 6.5 6 Sur 10 Sur 0 -- -- 100
2020-11-08 06:00:00 4.7 3 Este 8 Este 0 -- -- 99
2020-11-08 05:00:00 5.1 5 Este 8 Nordeste 0 -- -- 97
2020-11-08 04:00:00 5.1 0 Calma 8 Este 0 -- -- 97
2020-11-08 03:00:00 5.9 4 Este 9 Este 0 -- -- 94
2020-11-08 02:00:00 7.5 9 Sudoeste 24 Sudoeste 0 -- -- 90
2020-11-08 01:00:00 8.7 18 Sudoeste 36 Sudoeste 0 -- -- 87
2020-11-08 00:00:00 9.4 15 Sudoeste 31 Sur 0 -- -- 87
2020-11-07 23:00:00 9.6 18 Sudoeste 31 Sur 0 -- -- 87
2020-11-07 22:00:00 9.8 12 Sudoeste 27 Sudoeste 0 -- -- 88
2020-11-07 21:00:00 9.7 14 Sudoeste 28 Sudoeste 0 -- -- 91
2020-11-07 20:00:00 9.6 14 Sudoeste 25 Sudoeste 0 -- -- 90
2020-11-07 19:00:00 9.4 14 Sudoeste 27 Sur 0 -- -- 91
2020-11-07 18:00:00 9.9 14 Sudoeste 35 Sudoeste 0 -- -- 88
2020-11-07 17:00:00 10.8 15 Sudoeste 31 Sudoeste 0 -- -- 85
2020-11-07 16:00:00 10.7 14 Sudoeste 36 Oeste 0 -- -- 85
2020-11-07 15:00:00 12.5 24 Sudoeste 45 Sudoeste 0 -- -- 77
2020-11-07 14:00:00 11.9 26 Sur 39 Sur 0 -- -- 81
2020-11-07 13:00:00 10.8 18 Sudoeste 33 Sur 0 -- -- 86
2020-11-07 12:00:00 11.6 18 Sur 31 Sur 0 -- -- 85
2020-11-07 11:00:00 10.5 9 Sur 17 Sur 0 -- -- 92
2020-11-07 10:00:00 10.1 10 Sudeste 19 Sudeste 0 -- -- 92
2020-11-07 09:00:00 9.8 9 Sudeste 17 Sudeste 0 -- -- 92
2020-11-07 08:00:00 9.2 6 Sudeste 13 Sudeste 0 -- -- 93
2020-11-07 07:00:00 8.5 0 Calma 17 Norte 0.6 -- -- 96
2020-11-07 06:00:00 8.8 3 Este 49 Sudoeste 6.2 -- -- 97
2020-11-07 05:00:00 10.2 19 Sur 37 Sudoeste 10 -- -- 97
2020-11-07 04:00:00 11.3 21 Este 30 Este 0.2 -- -- 94
2020-11-07 03:00:00 11.6 21 Este 35 Este 0.4 -- -- 92
2020-11-07 02:00:00 11.6 15 Este 30 Este 0 -- -- 90
2020-11-07 01:00:00 11.5 22 Este 33 Este 0 -- -- 89
2020-11-07 00:00:00 11.6 21 Este 35 Este 0 -- -- 90
2020-11-06 23:00:00 12 22 Este 41 Este 0 -- -- 89
2020-11-06 22:00:00 12.2 28 Este 50 Este 0 -- -- 89
2020-11-06 21:00:00 12 37 Este 49 Este 0 -- -- 93
2020-11-06 20:00:00 12.1 15 Este 41 Este 0 -- -- 91
2020-11-06 19:00:00 12.4 30 Este 50 Este 0 -- -- 92
2020-11-06 18:00:00 12.9 35 Este 53 Este 0 -- -- 91
2020-11-06 17:00:00 14 35 Este 53 Este 0 -- -- 86
2020-11-06 16:00:00 15.6 33 Este 51 Este 0 -- -- 81
2020-11-06 15:00:00 15.1 32 Este 51 Este 0 -- -- 83
2020-11-06 14:00:00 15.3 36 Este 50 Este 0 -- -- 82
2020-11-06 13:00:00 14.5 34 Este 50 Este 0 -- -- 85
2020-11-06 12:00:00 13.2 32 Este 51 Este 0 -- -- 87
2020-11-06 11:00:00 12.3 27 Este 42 Este 0 -- -- 90
2020-11-06 10:00:00 11.1 25 Este 38 Este 0 -- -- 94
2020-11-06 09:00:00 10.4 25 Este 34 Este 0 -- -- 94
2020-11-06 08:00:00 10 20 Este 35 Este 0 -- -- 96
2020-11-06 07:00:00 9.7 22 Este 33 Este 0 -- -- 97
2020-11-06 06:00:00 9.5 12 Sudeste 22 Este 0 -- -- 97
2020-11-06 05:00:00 9.3 13 Este 23 Este 0 -- -- 97
2020-11-06 04:00:00 9 15 Este 33 Este 0 -- -- 96
2020-11-06 03:00:00 9 21 Este 33 Sudeste 0 -- -- 95
2020-11-06 02:00:00 8.7 14 Este 23 Este 0 -- -- 95
2020-11-06 01:00:00 9 14 Este 36 Este 0 -- -- 94
2020-11-06 00:00:00 9.1 21 Este 39 Este 0 -- -- 95
2020-11-05 23:00:00 9.1 23 Este 42 Este 0.4 -- -- 97
2020-11-05 22:00:00 8.8 31 Este 45 Este 0 -- -- 98
2020-11-05 21:00:00 8.6 24 Este 39 Este 1.6 -- -- 97
2020-11-05 20:00:00 8.5 25 Este 39 Este 2.6 -- -- 97
2020-11-05 19:00:00 8.6 29 Este 46 Este 0.4 -- -- 96
2020-11-05 18:00:00 8.8 26 Este 46 Este 0 -- -- 94
2020-11-05 17:00:00 8.8 27 Este 39 Este 0.4 -- -- 95
2020-11-05 16:00:00 9.3 24 Este 41 Este 0 -- -- 90
2020-11-05 15:00:00 9.6 21 Este 39 Este 0 -- -- 89
2020-11-05 14:00:00 9.3 24 Este 40 Este 0.4 -- -- 89
2020-11-05 13:00:00 8.7 18 Este 41 Este 0 -- -- 88
2020-11-05 12:00:00 9.1 23 Este 46 Este 0 -- -- 84
2020-11-05 11:00:00 8.4 26 Este 46 Este 0 -- -- 84
2020-11-05 10:00:00 7.7 32 Este 48 Este 0 -- -- 87
2020-11-05 09:00:00 6.4 27 Este 51 Este 0 -- -- 94
2020-11-05 08:00:00 6.1 38 Este 55 Este 0.2 -- -- 95
2020-11-05 07:00:00 6 38 Este 56 Este 0 -- -- 95
2020-11-05 06:00:00 6 26 Este 41 Este 0 -- -- 94
2020-11-05 05:00:00 6.2 25 Este 46 Este 0 -- -- 94
2020-11-05 04:00:00 6 30 Este 44 Este 0 -- -- 95
2020-11-05 03:00:00 5.6 29 Este 42 Este 0 -- -- 97
2020-11-05 02:00:00 5.2 23 Este 36 Este 0 -- -- 96
2020-11-05 01:00:00 5.1 21 Este 45 Este 0 -- -- 96
2020-11-05 00:00:00 5 30 Este 44 Este 0 -- -- 96